createdAt,value
2023-04-12T00:00:07.975Z,7.4
2023-04-12T00:01:16.317Z,7.4
2023-04-12T00:02:24.985Z,5.5
2023-04-12T00:03:33.256Z,5.5
2023-04-12T00:04:41.638Z,5.5
2023-04-12T00:05:50.086Z,7.4
2023-04-12T00:06:58.428Z,7.4
2023-04-12T00:08:06.783Z,7.4
2023-04-12T00:09:15.354Z,5
2023-04-12T00:10:23.720Z,5
2023-04-12T00:11:32.033Z,5
2023-04-12T00:12:40.567Z,5.2
2023-04-12T00:13:48.904Z,5.2
2023-04-12T00:14:57.226Z,5.2
2023-04-12T00:16:05.838Z,6
2023-04-12T00:17:14.114Z,6
2023-04-12T00:18:22.454Z,6
2023-04-12T00:19:31.006Z,7.6
2023-04-12T00:20:39.333Z,7.6
2023-04-12T00:21:47.685Z,7.6
2023-04-12T00:22:56.218Z,5.3
2023-04-12T00:24:04.548Z,5.3
2023-04-12T00:25:12.883Z,5.3
2023-04-12T00:26:21.568Z,7
2023-04-12T00:27:29.804Z,7
2023-04-12T00:28:38.156Z,7
2023-04-12T00:29:46.741Z,7.8
2023-04-12T00:30:55.046Z,7.8
2023-04-12T00:32:03.378Z,7.8
2023-04-12T00:33:11.921Z,6.2
2023-04-12T00:34:20.271Z,6.2
2023-04-12T00:35:28.619Z,6.2
2023-04-12T00:36:37.154Z,5.9
2023-04-12T00:37:45.488Z,5.9
2023-04-12T00:38:53.814Z,5.9
2023-04-12T00:40:02.408Z,6.3
2023-04-12T00:41:10.703Z,6.3
2023-04-12T00:42:19.079Z,6.3
2023-04-12T00:43:27.583Z,7.2
2023-04-12T00:44:35.942Z,7.2
2023-04-12T00:45:44.278Z,7.2
2023-04-12T00:46:52.826Z,7
2023-04-12T00:48:01.207Z,7
2023-04-12T00:49:09.507Z,7
2023-04-12T00:50:18.085Z,5.7
2023-04-12T00:51:26.423Z,5.7
2023-04-12T00:52:34.773Z,5.7
2023-04-12T00:53:43.314Z,4.8
2023-04-12T00:54:51.643Z,4.8
2023-04-12T00:55:59.979Z,4.8
2023-04-12T00:57:08.532Z,6.2
2023-04-12T00:58:16.879Z,6.2
2023-04-12T00:59:25.171Z,6.2
2023-04-12T01:00:33.779Z,5.6
2023-04-12T01:01:42.132Z,5.6
2023-04-12T01:02:50.656Z,5.6
2023-04-12T01:03:59.076Z,6.4
2023-04-12T01:05:07.290Z,6.4
2023-04-12T01:06:15.623Z,6.4
2023-04-12T01:07:24.181Z,7.2
2023-04-12T01:08:32.507Z,7.2
2023-04-12T01:09:40.861Z,7.2
2023-04-12T01:10:49.440Z,6.3
2023-04-12T01:11:57.755Z,6.3
2023-04-12T01:13:06.080Z,6.3
2023-04-12T01:14:14.645Z,4.7
2023-04-12T01:15:22.988Z,4.7
2023-04-12T01:16:31.314Z,4.7
2023-04-12T01:17:39.882Z,6.6
2023-04-12T01:18:48.162Z,6.6
2023-04-12T01:19:56.520Z,6.6
2023-04-12T01:21:05.146Z,5.8
2023-04-12T01:22:13.485Z,5.8
2023-04-12T01:23:21.764Z,5.8
2023-04-12T01:24:30.295Z,5.7
2023-04-12T01:25:38.637Z,5.7
2023-04-12T01:26:46.965Z,5.7
2023-04-12T01:27:55.505Z,5.7
2023-04-12T01:29:03.838Z,5.7
2023-04-12T01:30:12.205Z,5.7
2023-04-12T01:31:20.797Z,6
2023-04-12T01:32:29.101Z,6
2023-04-12T01:33:37.434Z,6
2023-04-12T01:34:45.977Z,7.2
2023-04-12T01:35:54.318Z,7.2
2023-04-12T01:37:02.654Z,7.2
2023-04-12T01:38:11.181Z,5.5
2023-04-12T01:39:19.496Z,5.5
2023-04-12T01:40:27.839Z,5.5
2023-04-12T01:41:36.394Z,6.7
2023-04-12T01:42:44.721Z,6.7
2023-04-12T01:43:53.061Z,6.7
2023-04-12T01:45:01.602Z,5.9
2023-04-12T01:46:10.011Z,5.9
2023-04-12T01:47:18.290Z,5.9
2023-04-12T01:48:26.805Z,6.8
2023-04-12T01:49:35.153Z,6.8
2023-04-12T01:50:43.485Z,6.8
2023-04-12T01:51:52.038Z,4.3
2023-04-12T01:53:00.352Z,4.3
2023-04-12T01:54:08.687Z,4.3
2023-04-12T01:55:17.249Z,5.8
2023-04-12T01:56:25.557Z,5.8
2023-04-12T01:57:33.877Z,5.8
2023-04-12T01:58:42.422Z,6.4
2023-04-12T01:59:50.761Z,6.4
2023-04-12T02:00:59.107Z,6.4
2023-04-12T02:02:07.763Z,6.6
2023-04-12T02:03:16.180Z,6.6
2023-04-12T02:04:24.302Z,6.6
2023-04-12T02:05:32.858Z,5.6
2023-04-12T02:06:41.219Z,5.6
2023-04-12T02:07:49.547Z,5.6
2023-04-12T02:08:58.088Z,6.1
2023-04-12T02:10:06.430Z,6.1
2023-04-12T02:11:14.788Z,6.1
2023-04-12T02:12:23.312Z,6
2023-04-12T02:13:31.653Z,6
2023-04-12T02:14:39.982Z,6
2023-04-12T02:15:48.535Z,5.8
2023-04-12T02:16:56.918Z,5.8
2023-04-12T02:18:05.242Z,5.8
2023-04-12T02:19:13.744Z,6.9
2023-04-12T02:20:22.067Z,6.9
2023-04-12T02:21:30.393Z,6.9
2023-04-12T02:22:38.940Z,6.5
2023-04-12T02:23:47.336Z,6.5
2023-04-12T02:24:55.654Z,6.5
2023-04-12T02:26:04.198Z,7
2023-04-12T02:27:12.522Z,7
2023-04-12T02:28:20.872Z,7
2023-04-12T02:29:29.473Z,5.2
2023-04-12T02:30:37.787Z,5.2
2023-04-12T02:31:46.063Z,5.2
2023-04-12T02:32:54.644Z,7.1
2023-04-12T02:34:03.001Z,7.1
2023-04-12T02:35:11.257Z,7.1
2023-04-12T02:36:19.791Z,7.5
2023-04-12T02:37:28.140Z,7.5
2023-04-12T02:38:36.455Z,7.5
2023-04-12T02:39:45.013Z,6.7
2023-04-12T02:40:53.346Z,6.7
2023-04-12T02:42:01.687Z,6.7
2023-04-12T02:43:10.238Z,7.2
2023-04-12T02:44:18.539Z,7.2
2023-04-12T02:45:26.894Z,7.2
2023-04-12T02:46:35.515Z,7.7
2023-04-12T02:47:43.889Z,7.7
2023-04-12T02:48:52.106Z,7.7
2023-04-12T02:50:00.693Z,6.3
2023-04-12T02:51:08.992Z,6.3
2023-04-12T02:52:17.331Z,6.3
2023-04-12T02:53:25.877Z,8.1
2023-04-12T02:54:34.213Z,8.1
2023-04-12T02:55:42.553Z,8.1
2023-04-12T02:56:51.106Z,8.2
2023-04-12T02:57:59.424Z,8.2
2023-04-12T02:59:07.764Z,8.2
2023-04-12T03:00:16.277Z,10.8
2023-04-12T03:01:24.646Z,10.8
2023-04-12T03:02:33.180Z,10.8
2023-04-12T03:03:41.523Z,7.6
2023-04-12T03:04:49.839Z,7.6
2023-04-12T03:05:58.194Z,7.6
2023-04-12T03:07:06.700Z,6.3
2023-04-12T03:08:15.033Z,6.3
2023-04-12T03:09:23.370Z,6.3
2023-04-12T03:10:31.910Z,6.7
2023-04-12T03:11:40.241Z,6.7
2023-04-12T03:12:48.580Z,6.7
2023-04-12T03:13:57.245Z,10.2
2023-04-12T03:15:05.438Z,10.2
2023-04-12T03:16:13.787Z,10.2
2023-04-12T03:17:22.304Z,6.9
2023-04-12T03:18:30.618Z,6.9
2023-04-12T03:19:38.970Z,6.9
2023-04-12T03:20:47.893Z,6.3
2023-04-12T03:21:55.865Z,6.3
2023-04-12T03:23:04.187Z,6.3
2023-04-12T03:24:12.728Z,12.3
2023-04-12T03:25:21.054Z,12.3
2023-04-12T03:26:29.389Z,12.3
2023-04-12T03:27:37.932Z,7.6
2023-04-12T03:28:46.272Z,7.6
2023-04-12T03:29:54.604Z,7.6
2023-04-12T03:31:03.195Z,9.4
2023-04-12T03:32:11.467Z,9.4
2023-04-12T03:33:19.818Z,9.4
2023-04-12T03:34:28.354Z,7.9
2023-04-12T03:35:36.691Z,7.9
2023-04-12T03:36:45.062Z,7.9
2023-04-12T03:37:53.561Z,7
2023-04-12T03:39:02.242Z,7
2023-04-12T03:40:10.567Z,7
2023-04-12T03:41:19.127Z,6.9
2023-04-12T03:42:32.789Z,6.9
2023-04-12T03:43:35.776Z,6.9
2023-04-12T03:44:44.332Z,7.4
2023-04-12T03:45:52.680Z,7.4
2023-04-12T03:47:01.048Z,7.4
2023-04-12T03:48:09.657Z,6.2
2023-04-12T03:49:17.930Z,6.2
2023-04-12T03:50:26.239Z,6.2
2023-04-12T03:51:34.780Z,8.6
2023-04-12T03:52:43.118Z,8.6
2023-04-12T03:53:51.542Z,8.6
2023-04-12T03:54:59.998Z,8.8
2023-04-12T03:56:08.327Z,8.8
2023-04-12T03:57:16.659Z,8.8
2023-04-12T03:58:25.200Z,8.1
2023-04-12T03:59:33.544Z,8.1
2023-04-12T04:00:41.892Z,8.1
2023-04-12T04:01:50.461Z,9.8
2023-04-12T04:02:58.817Z,9.8
2023-04-12T04:04:07.229Z,9.8
2023-04-12T04:05:15.724Z,9.9
2023-04-12T04:06:23.978Z,9.9
2023-04-12T04:07:32.318Z,9.9
2023-04-12T04:08:40.871Z,14.4
2023-04-12T04:09:49.221Z,14.4
2023-04-12T04:10:57.531Z,14.4
2023-04-12T04:12:06.059Z,8.9
2023-04-12T04:13:14.395Z,8.9
2023-04-12T04:14:22.725Z,8.9
2023-04-12T04:15:31.265Z,6.7
2023-04-12T04:16:39.614Z,6.7
2023-04-12T04:17:47.933Z,6.7
2023-04-12T04:18:56.470Z,15
2023-04-12T04:20:04.798Z,15
2023-04-12T04:21:13.144Z,15
2023-04-12T04:22:21.862Z,9
2023-04-12T04:23:30.023Z,9
2023-04-12T04:24:38.336Z,9
2023-04-12T04:25:47.008Z,10.5
2023-04-12T04:26:55.324Z,10.5
2023-04-12T04:28:03.704Z,10.5
2023-04-12T04:29:12.208Z,11.8
2023-04-12T04:30:20.538Z,11.8
2023-04-12T04:31:28.867Z,11.8
2023-04-12T04:32:37.501Z,11.6
2023-04-12T04:33:45.751Z,11.6
2023-04-12T04:34:54.081Z,11.6
2023-04-12T04:36:02.745Z,16.299999
2023-04-12T04:37:11.044Z,16.299999
2023-04-12T04:38:19.399Z,16.299999
2023-04-12T04:39:27.928Z,11.3
2023-04-12T04:40:36.258Z,11.3
2023-04-12T04:41:44.642Z,11.3
2023-04-12T04:42:53.152Z,9.7
2023-04-12T04:44:01.513Z,9.7
2023-04-12T04:45:09.826Z,9.7
2023-04-12T04:46:18.406Z,11.9
2023-04-12T04:47:26.731Z,11.9
2023-04-12T04:48:35.037Z,11.9
2023-04-12T04:49:43.579Z,9.1
2023-04-12T04:50:51.908Z,9.1
2023-04-12T04:52:00.251Z,9.1
2023-04-12T04:53:08.797Z,8.2
2023-04-12T04:54:17.164Z,8.2
2023-04-12T04:55:25.491Z,8.2
2023-04-12T04:56:34.054Z,7.7
2023-04-12T04:57:42.460Z,7.7
2023-04-12T04:58:50.772Z,7.7
2023-04-12T04:59:59.301Z,12.8
2023-04-12T05:01:07.615Z,12.8
2023-04-12T05:02:16.002Z,12.8
2023-04-12T05:03:24.560Z,13
2023-04-12T05:04:32.892Z,13
2023-04-12T05:05:41.181Z,13
2023-04-12T05:06:49.736Z,17.200001
2023-04-12T05:07:58.074Z,17.200001
2023-04-12T05:09:06.403Z,17.200001
2023-04-12T05:10:14.941Z,18.4
2023-04-12T05:11:23.288Z,18.4
2023-04-12T05:12:31.620Z,18.4
2023-04-12T05:13:40.176Z,21.700001
2023-04-12T05:14:51.558Z,21.700001
2023-04-12T05:15:56.845Z,21.700001
2023-04-12T05:17:05.422Z,10.5
2023-04-12T05:18:13.743Z,10.5
2023-04-12T05:19:22.066Z,10.5
2023-04-12T05:20:30.623Z,12.9
2023-04-12T05:21:38.955Z,12.9
2023-04-12T05:22:47.295Z,12.9
2023-04-12T05:23:55.839Z,7.9
2023-04-12T05:25:04.167Z,7.9
2023-04-12T05:26:12.485Z,7.9
2023-04-12T05:27:21.031Z,12.2
2023-04-12T05:28:29.355Z,12.2
2023-04-12T05:29:37.724Z,12.2
2023-04-12T05:30:46.250Z,7.4
2023-04-12T05:31:54.555Z,7.4
2023-04-12T05:33:02.911Z,7.4
2023-04-12T05:34:11.442Z,11.6
2023-04-12T05:35:19.769Z,11.6
2023-04-12T05:36:28.112Z,11.6
2023-04-12T05:37:36.671Z,12.8
2023-04-12T05:38:45.011Z,12.8
2023-04-12T05:39:53.353Z,12.8
2023-04-12T05:41:01.887Z,11.4
2023-04-12T05:42:10.237Z,11.4
2023-04-12T05:43:18.562Z,11.4
2023-04-12T05:44:27.097Z,12.7
2023-04-12T05:45:35.484Z,12.7
2023-04-12T05:46:43.899Z,12.7
2023-04-12T05:47:52.436Z,10
2023-04-12T05:49:00.749Z,10
2023-04-12T05:50:09.111Z,10
2023-04-12T05:51:21.178Z,7.5
2023-04-12T05:52:26.029Z,7.5
2023-04-12T05:53:34.353Z,7.5
2023-04-12T05:54:42.874Z,7.1
2023-04-12T05:55:51.211Z,7.1
2023-04-12T05:56:59.543Z,7.1
2023-04-12T05:58:08.094Z,7.5
2023-04-12T05:59:16.431Z,7.5
2023-04-12T06:00:24.781Z,7.5
2023-04-12T06:01:33.353Z,12.7
2023-04-12T06:02:41.751Z,12.7
2023-04-12T06:03:50.083Z,12.7
2023-04-12T06:04:58.654Z,12.9
2023-04-12T06:06:06.838Z,12.9
2023-04-12T06:07:15.186Z,12.9
2023-04-12T06:08:23.708Z,9
2023-04-12T06:09:32.048Z,9
2023-04-12T06:10:40.370Z,9
2023-04-12T06:11:48.918Z,10.7
2023-04-12T06:12:57.245Z,10.7
2023-04-12T06:14:05.578Z,10.7
2023-04-12T06:15:14.097Z,5.9
2023-04-12T06:16:22.441Z,5.9
2023-04-12T06:17:30.813Z,5.9
2023-04-12T06:18:39.304Z,18.799999
2023-04-12T06:19:47.649Z,18.799999
2023-04-12T06:20:55.989Z,18.799999
2023-04-12T06:22:04.571Z,10.5
2023-04-12T06:23:12.883Z,10.5
2023-04-12T06:24:21.219Z,10.5
2023-04-12T06:25:29.771Z,11.7
2023-04-12T06:26:39.988Z,11.7
2023-04-12T06:27:46.433Z,11.7
2023-04-12T06:28:55.243Z,8.9
2023-04-12T06:30:03.304Z,8.9
2023-04-12T06:31:11.699Z,8.9
2023-04-12T06:32:20.200Z,5.7
2023-04-12T06:33:28.539Z,5.7
2023-04-12T06:34:36.832Z,5.7
2023-04-12T06:35:45.402Z,6.4
2023-04-12T06:36:53.710Z,6.4
2023-04-12T06:38:02.066Z,6.4
2023-04-12T06:39:10.579Z,6.3
2023-04-12T06:40:18.908Z,6.3
2023-04-12T06:41:27.239Z,6.3
2023-04-12T06:42:35.784Z,9
2023-04-12T06:43:44.129Z,9
2023-04-12T06:44:52.445Z,9
2023-04-12T06:46:00.976Z,7
2023-04-12T06:47:09.489Z,7
2023-04-12T06:48:17.648Z,7
2023-04-12T06:49:26.301Z,7.5
2023-04-12T06:50:34.545Z,7.5
2023-04-12T06:51:42.896Z,7.5
2023-04-12T06:52:51.456Z,7.8
2023-04-12T06:53:59.846Z,7.8
2023-04-12T06:55:08.160Z,7.8
2023-04-12T06:56:18.397Z,5.4
2023-04-12T06:57:25.091Z,5.4
2023-04-12T06:58:33.377Z,5.4
2023-04-12T06:59:41.913Z,6.8
2023-04-12T07:00:50.283Z,6.8
2023-04-12T07:01:58.611Z,6.8
2023-04-12T07:03:07.169Z,6.3
2023-04-12T07:04:15.500Z,6.3
2023-04-12T07:05:23.844Z,6.3
2023-04-12T07:06:32.356Z,4.6
2023-04-12T07:07:40.695Z,4.6
2023-04-12T07:08:49.050Z,4.6
2023-04-12T07:09:57.566Z,5.6
2023-04-12T07:11:18.070Z,5.6
2023-04-12T07:12:14.225Z,5.6
2023-04-12T07:13:22.786Z,5.3
2023-04-12T07:14:31.105Z,5.3
2023-04-12T07:15:39.435Z,5.3
2023-04-12T07:16:48.057Z,7.1
2023-04-12T07:17:56.349Z,7.1
2023-04-12T07:19:04.649Z,7.1
2023-04-12T07:20:13.201Z,5.8
2023-04-12T07:21:21.706Z,5.8
2023-04-12T07:22:29.858Z,5.8
2023-04-12T07:23:38.412Z,7.3
2023-04-12T07:24:46.735Z,7.3
2023-04-12T07:25:55.102Z,7.3
2023-04-12T07:27:03.647Z,4.6
2023-04-12T07:28:12.001Z,4.6
2023-04-12T07:29:20.310Z,4.6
2023-04-12T07:30:28.840Z,5.8
2023-04-12T07:31:37.198Z,5.8
2023-04-12T07:32:45.588Z,5.8
2023-04-12T07:33:54.114Z,6.4
2023-04-12T07:35:02.388Z,6.4
2023-04-12T07:36:10.783Z,6.4
2023-04-12T07:37:19.279Z,5.5
2023-04-12T07:38:27.585Z,5.5
2023-04-12T07:39:35.917Z,5.5
2023-04-12T07:40:44.476Z,4.3
2023-04-12T07:41:52.801Z,4.3
2023-04-12T07:43:01.118Z,4.3
2023-04-12T07:44:09.650Z,4.5
2023-04-12T07:45:17.957Z,4.5
2023-04-12T07:46:26.387Z,4.5
2023-04-12T07:47:34.897Z,5.1
2023-04-12T07:48:43.187Z,5.1
2023-04-12T07:49:51.514Z,5.1
2023-04-12T07:51:00.079Z,5.1
2023-04-12T07:52:08.409Z,5.1
2023-04-12T07:53:17.368Z,5.1
2023-04-12T07:54:25.883Z,6.7
2023-04-12T07:55:34.227Z,6.7
2023-04-12T07:56:42.554Z,6.7
2023-04-12T07:57:52.550Z,6.2
2023-04-12T07:59:01.189Z,6.2
2023-04-12T08:00:09.248Z,6.2
2023-04-12T08:01:17.842Z,4
2023-04-12T08:02:26.408Z,4
2023-04-12T08:03:34.657Z,4
2023-04-12T08:04:43.162Z,6.5
2023-04-12T08:05:51.528Z,6.5
2023-04-12T08:06:59.849Z,6.5
2023-04-12T08:08:08.370Z,4.9
2023-04-12T08:09:16.771Z,4.9
2023-04-12T08:10:25.069Z,4.9
2023-04-12T08:11:33.611Z,5.3
2023-04-12T08:12:41.952Z,5.3
2023-04-12T08:13:50.268Z,5.3
2023-04-12T08:14:58.821Z,4.2
2023-04-12T08:16:07.194Z,4.2
2023-04-12T08:17:15.494Z,4.2
2023-04-12T08:18:24.018Z,4.3
2023-04-12T08:19:32.371Z,4.3
2023-04-12T08:20:40.704Z,4.3
2023-04-12T08:21:49.246Z,5.8
2023-04-12T08:22:57.582Z,5.8
2023-04-12T08:24:05.908Z,5.8
2023-04-12T08:25:14.495Z,5.3
2023-04-12T08:26:22.784Z,5.3
2023-04-12T08:27:31.122Z,5.3
2023-04-12T08:28:39.899Z,6.3
2023-04-12T08:29:47.987Z,6.3
2023-04-12T08:30:56.342Z,6.3
2023-04-12T08:32:04.857Z,5.7
2023-04-12T08:33:13.197Z,5.7
2023-04-12T08:34:21.543Z,5.7
2023-04-12T08:35:30.109Z,5.5
2023-04-12T08:36:38.424Z,5.5
2023-04-12T08:37:46.763Z,5.5
2023-04-12T08:38:55.312Z,4.4
2023-04-12T08:40:03.638Z,4.4
2023-04-12T08:41:12.211Z,4.4
2023-04-12T08:42:20.538Z,5.7
2023-04-12T08:43:28.871Z,5.7
2023-04-12T08:44:37.395Z,5.7
2023-04-12T08:45:45.929Z,4.8
2023-04-12T08:46:54.290Z,4.8
2023-04-12T08:48:02.652Z,4.8
2023-04-12T08:49:11.138Z,4.4
2023-04-12T08:50:19.527Z,4.4
2023-04-12T08:51:27.842Z,4.4
2023-04-12T08:52:36.383Z,5.7
2023-04-12T08:53:44.700Z,5.7
2023-04-12T08:54:53.049Z,5.7
2023-04-12T08:56:01.618Z,5.4
2023-04-12T08:57:10.252Z,5.4
2023-04-12T08:58:18.357Z,5.4
2023-04-12T08:59:26.860Z,5.6
2023-04-12T09:00:35.181Z,5.6
2023-04-12T09:01:43.590Z,5.6
2023-04-12T09:02:52.224Z,11.7
2023-04-12T09:04:00.791Z,11.7
2023-04-12T09:05:08.768Z,11.7
2023-04-12T09:06:17.278Z,4.9
2023-04-12T09:07:25.637Z,4.9
2023-04-12T09:08:34.026Z,4.9
2023-04-12T09:09:42.584Z,4.9
2023-04-12T09:10:50.937Z,4.9
2023-04-12T09:11:59.308Z,4.9
2023-04-12T09:13:07.968Z,5.6
2023-04-12T09:14:16.221Z,5.6
2023-04-12T09:15:24.616Z,5.6
2023-04-12T09:16:33.185Z,7.2
2023-04-12T09:17:41.552Z,7.2
2023-04-12T09:18:49.808Z,7.2
2023-04-12T09:19:58.369Z,4.5
2023-04-12T09:21:06.717Z,4.5
2023-04-12T09:22:15.106Z,4.5
2023-04-12T09:23:23.639Z,4.1
2023-04-12T09:24:31.992Z,4.1
2023-04-12T09:25:40.355Z,4.1
2023-04-12T09:26:48.891Z,5.9
2023-04-12T09:27:57.253Z,5.9
2023-04-12T09:29:05.717Z,5.9
2023-04-12T09:30:14.191Z,6.7
2023-04-12T09:31:22.535Z,6.7
2023-04-12T09:32:30.880Z,6.7
2023-04-12T09:33:39.461Z,6.3
2023-04-12T09:34:47.762Z,6.3
2023-04-12T09:35:56.161Z,6.3
2023-04-12T09:37:04.649Z,5
2023-04-12T09:38:12.998Z,5
2023-04-12T09:39:21.390Z,5
2023-04-12T09:40:29.922Z,3.2
2023-04-12T09:41:38.244Z,3.2
2023-04-12T09:42:46.624Z,3.2
2023-04-12T09:43:55.340Z,3.6
2023-04-12T09:45:03.628Z,3.6
2023-04-12T09:46:11.969Z,3.6
2023-04-12T09:47:20.565Z,3.9
2023-04-12T09:48:28.852Z,3.9
2023-04-12T09:49:37.221Z,3.9
2023-04-12T09:50:45.764Z,2.4
2023-04-12T09:51:54.095Z,2.4
2023-04-12T09:53:02.468Z,2.4
2023-04-12T09:54:11.016Z,5
2023-04-12T09:55:19.381Z,5
2023-04-12T09:56:27.705Z,5
2023-04-12T09:57:36.280Z,4.1
2023-04-12T09:58:44.637Z,4.1
2023-04-12T09:59:52.963Z,4.1
2023-04-12T10:01:01.587Z,3.1
2023-04-12T10:02:09.967Z,3.1
2023-04-12T10:03:18.223Z,3.1
2023-04-12T10:04:26.825Z,5.4
2023-04-12T10:05:35.072Z,5.4
2023-04-12T10:06:43.404Z,5.4
2023-04-12T10:07:51.930Z,3.8
2023-04-12T10:09:00.298Z,3.8
2023-04-12T10:10:08.620Z,3.8
2023-04-12T10:11:17.185Z,4.7
2023-04-12T10:12:25.496Z,4.7
2023-04-12T10:13:33.913Z,4.7
2023-04-12T10:14:42.509Z,4.6
2023-04-12T10:15:50.832Z,4.6
2023-04-12T10:16:59.169Z,4.6
2023-04-12T10:18:07.721Z,4.7
2023-04-12T10:19:16.053Z,4.7
2023-04-12T10:20:27.285Z,4.7
2023-04-12T10:21:32.951Z,4.3
2023-04-12T10:22:41.267Z,4.3
2023-04-12T10:23:49.659Z,4.3
2023-04-12T10:24:58.275Z,4.1
2023-04-12T10:26:06.591Z,4.1
2023-04-12T10:27:14.917Z,4.1
2023-04-12T10:28:23.489Z,3.5
2023-04-12T10:29:31.821Z,3.5
2023-04-12T10:30:40.189Z,3.5
2023-04-12T10:31:48.782Z,3.1
2023-04-12T10:32:57.157Z,3.1
2023-04-12T10:34:05.416Z,3.1
2023-04-12T10:35:14.028Z,3
2023-04-12T10:36:22.360Z,3
2023-04-12T10:37:30.663Z,3
2023-04-12T10:38:39.241Z,3.4
2023-04-12T10:39:47.593Z,3.4
2023-04-12T10:40:55.940Z,3.4
2023-04-12T10:42:04.502Z,4.7
2023-04-12T10:43:12.851Z,4.7
2023-04-12T10:44:21.190Z,4.7
2023-04-12T10:45:29.739Z,4.3
2023-04-12T10:46:38.142Z,4.3
2023-04-12T10:47:46.460Z,4.3
2023-04-12T10:48:55.219Z,3.2
2023-04-12T10:50:03.334Z,3.2
2023-04-12T10:51:11.698Z,3.2
2023-04-12T10:52:20.232Z,2.8
2023-04-12T10:53:28.634Z,2.8
2023-04-12T10:54:36.948Z,2.8
2023-04-12T10:55:45.541Z,2.7
2023-04-12T10:56:53.886Z,2.7
2023-04-12T10:58:02.288Z,2.7
2023-04-12T10:59:10.789Z,2.5
2023-04-12T11:00:19.238Z,2.5
2023-04-12T11:01:27.639Z,2.5
2023-04-12T11:02:36.100Z,2.6
2023-04-12T11:03:44.430Z,2.6
2023-04-12T11:04:52.957Z,2.6
2023-04-12T11:06:06.696Z,4
2023-04-12T11:07:09.633Z,4
2023-04-12T11:08:17.946Z,4
2023-04-12T11:09:26.502Z,2.9
2023-04-12T11:10:34.875Z,2.9
2023-04-12T11:11:43.237Z,2.9
2023-04-12T11:12:51.754Z,2.8
2023-04-12T11:14:00.118Z,2.8
2023-04-12T11:15:08.469Z,2.8
2023-04-12T11:16:17.048Z,3.6
2023-04-12T11:17:25.556Z,3.6
2023-04-12T11:18:33.833Z,3.6
2023-04-12T11:19:42.360Z,1.9
2023-04-12T11:20:50.699Z,1.9
2023-04-12T11:21:59.008Z,1.9
2023-04-12T11:23:09.927Z,2.4
2023-04-12T11:24:15.880Z,2.4
2023-04-12T11:25:24.215Z,2.4
2023-04-12T11:26:32.754Z,2.4
2023-04-12T11:27:41.082Z,2.4
2023-04-12T11:28:49.427Z,2.4
2023-04-12T11:29:57.968Z,2.1
2023-04-12T11:31:06.342Z,2.1
2023-04-12T11:32:14.700Z,2.1
2023-04-12T11:33:23.241Z,1.7
2023-04-12T11:34:31.552Z,1.7
2023-04-12T11:35:39.868Z,1.7
2023-04-12T11:36:48.548Z,1.7
2023-04-12T11:37:56.846Z,1.7
2023-04-12T11:39:05.176Z,1.7
2023-04-12T11:40:13.763Z,2.4
2023-04-12T11:41:22.090Z,2.4
2023-04-12T11:42:30.426Z,2.4
2023-04-12T11:43:39.083Z,3.1
2023-04-12T11:44:56.746Z,3.1
2023-04-12T11:45:55.649Z,3.1
2023-04-12T11:47:04.177Z,1.7
2023-04-12T11:48:12.618Z,1.7
2023-04-12T11:49:20.872Z,1.7
2023-04-12T11:50:29.397Z,2.7
2023-04-12T11:51:37.738Z,2.7
2023-04-12T11:52:46.121Z,2.7
2023-04-12T11:53:54.719Z,2
2023-04-12T11:55:02.969Z,2
2023-04-12T11:56:11.276Z,2
2023-04-12T11:57:19.810Z,2.3
2023-04-12T11:58:28.148Z,2.3
2023-04-12T11:59:36.486Z,2.3
2023-04-12T12:00:45.011Z,2.6
2023-04-12T12:01:53.349Z,2.6
2023-04-12T12:03:07.509Z,2.6
2023-04-12T12:04:10.567Z,2
2023-04-12T12:05:18.651Z,2
2023-04-12T12:06:27.316Z,2
2023-04-12T12:07:35.512Z,2.2
2023-04-12T12:08:43.779Z,2.2
2023-04-12T12:09:52.092Z,2.2
2023-04-12T12:11:07.541Z,2
2023-04-12T12:12:09.002Z,2
2023-04-12T12:13:17.350Z,2
2023-04-12T12:14:25.887Z,2.2
2023-04-12T12:15:34.224Z,2.2
2023-04-12T12:16:42.557Z,2.2
2023-04-12T12:17:51.107Z,1.7
2023-04-12T12:18:59.426Z,1.7
2023-04-12T12:20:07.757Z,1.7
2023-04-12T12:21:16.287Z,1.5
2023-04-12T12:22:24.631Z,1.5
2023-04-12T12:23:32.967Z,1.5
2023-04-12T12:24:43.646Z,1.4
2023-04-12T12:25:49.834Z,1.4
2023-04-12T12:26:58.161Z,1.4
2023-04-12T12:28:06.717Z,2
2023-04-12T12:29:15.036Z,2
2023-04-12T12:30:23.387Z,2
2023-04-12T12:31:31.910Z,1.6
2023-04-12T12:32:40.269Z,1.6
2023-04-12T12:33:48.573Z,1.6
2023-04-12T12:34:57.114Z,2.3
2023-04-12T12:36:05.510Z,2.3
2023-04-12T12:37:13.856Z,2.3
2023-04-12T12:38:22.585Z,1.7
2023-04-12T12:39:30.723Z,1.7
2023-04-12T12:40:39.139Z,1.7
2023-04-12T12:41:47.637Z,2
2023-04-12T12:42:55.982Z,2
2023-04-12T12:44:04.337Z,2
2023-04-12T12:45:12.880Z,2
2023-04-12T12:46:21.271Z,2
2023-04-12T12:47:29.646Z,2
2023-04-12T12:48:38.158Z,2.5
2023-04-12T12:49:46.463Z,2.5
2023-04-12T12:50:54.800Z,2.5
2023-04-12T12:52:03.348Z,2.1
2023-04-12T12:53:11.690Z,2.1
2023-04-12T12:54:36.541Z,2.1
2023-04-12T12:55:28.577Z,1.6
2023-04-12T12:56:36.954Z,1.6
2023-04-12T12:57:49.830Z,1.6
2023-04-12T12:58:53.851Z,1.8
2023-04-12T13:00:02.185Z,1.8
2023-04-12T13:01:10.501Z,1.8
2023-04-12T13:02:19.185Z,2.3
2023-04-12T13:03:27.567Z,2.3
2023-04-12T13:04:35.845Z,2.3
2023-04-12T13:05:44.309Z,2.5
2023-04-12T13:06:52.674Z,2.5
2023-04-12T13:08:01.045Z,2.5
2023-04-12T13:09:09.583Z,2.5
2023-04-12T13:10:17.943Z,2.5
2023-04-12T13:11:26.292Z,2.5
2023-04-12T13:12:34.922Z,2.7
2023-04-12T13:13:43.226Z,2.7
2023-04-12T13:14:51.661Z,2.7
2023-04-12T13:16:00.144Z,2.5
2023-04-12T13:17:08.521Z,2.5
2023-04-12T13:18:16.830Z,2.5
2023-04-12T13:19:25.380Z,2.4
2023-04-12T13:20:33.727Z,2.4
2023-04-12T13:21:42.101Z,2.4
2023-04-12T13:22:50.703Z,1.8
2023-04-12T13:23:59.075Z,1.8
2023-04-12T13:25:07.451Z,1.8
2023-04-12T13:26:16.016Z,1.7
2023-04-12T13:27:24.344Z,1.7
2023-04-12T13:28:32.731Z,1.7
2023-04-12T13:29:41.247Z,2
2023-04-12T13:30:49.689Z,2
2023-04-12T13:31:58.033Z,2
2023-04-12T13:33:06.655Z,38.599998
2023-04-12T13:34:14.896Z,38.599998
2023-04-12T13:35:23.241Z,38.599998
2023-04-12T13:36:31.788Z,5
2023-04-12T13:37:40.167Z,5
2023-04-12T13:38:48.514Z,5
2023-04-12T13:39:57.081Z,12.5
2023-04-12T13:41:05.440Z,12.5
2023-04-12T13:42:13.802Z,12.5
2023-04-12T13:43:22.377Z,3.8
2023-04-12T13:44:30.749Z,3.8
2023-04-12T13:45:39.169Z,3.8
2023-04-12T13:46:47.579Z,3.7
2023-04-12T13:47:56.015Z,3.7
2023-04-12T13:49:04.285Z,3.7
2023-04-12T13:50:12.858Z,2.2
2023-04-12T13:51:21.181Z,2.2
2023-04-12T13:52:29.526Z,2.2
2023-04-12T13:53:38.054Z,3.1
2023-04-12T13:54:46.423Z,3.1
2023-04-12T13:55:54.783Z,3.1
2023-04-12T13:57:03.405Z,3.2
2023-04-12T13:58:11.705Z,3.2
2023-04-12T13:59:20.026Z,3.2
2023-04-12T14:00:28.660Z,6.5
2023-04-12T14:01:37.053Z,6.5
2023-04-12T14:02:45.357Z,6.5
2023-04-12T14:03:53.877Z,3.1
2023-04-12T14:05:02.297Z,3.1
2023-04-12T14:06:10.503Z,3.1
2023-04-12T14:07:19.061Z,3.3
2023-04-12T14:08:27.374Z,3.3
2023-04-12T14:09:35.774Z,3.3
2023-04-12T14:10:44.313Z,3.6
2023-04-12T14:11:52.648Z,3.6
2023-04-12T14:13:01.001Z,3.6
2023-04-12T14:14:09.541Z,3.5
2023-04-12T14:15:17.872Z,3.5
2023-04-12T15:54:24.976Z,0
2023-04-12T15:55:33.302Z,0
2023-04-12T15:56:41.889Z,2.7
2023-04-12T15:57:50.244Z,2.7
2023-04-12T15:58:58.711Z,2.7
2023-04-12T16:00:07.152Z,2.8
2023-04-12T16:01:15.531Z,2.8
2023-04-12T16:02:24.073Z,2.8
2023-04-12T16:03:32.494Z,3.1
2023-04-12T16:04:41.074Z,3.1
2023-04-12T16:05:49.129Z,3.1
2023-04-12T16:06:57.702Z,3.6
2023-04-12T16:08:06.030Z,3.6
2023-04-12T16:09:14.383Z,3.6
2023-04-12T16:10:22.947Z,3.7
2023-04-12T16:11:31.259Z,3.7
2023-04-12T16:12:39.575Z,3.7
2023-04-12T16:13:48.125Z,5.4
2023-04-12T16:14:56.448Z,5.4
2023-04-12T16:16:04.832Z,5.4
2023-04-12T16:17:13.370Z,3.7
2023-04-12T16:18:21.681Z,3.7
2023-04-12T16:19:30.031Z,3.7
2023-04-12T16:20:38.595Z,8.7
2023-04-12T16:21:46.924Z,8.7
2023-04-12T16:22:55.287Z,8.7
2023-04-12T16:24:03.824Z,25.6
2023-04-12T16:25:12.171Z,25.6
2023-04-12T16:26:20.533Z,25.6
2023-04-12T16:27:29.051Z,23.5
2023-04-12T16:28:37.393Z,23.5
2023-04-12T16:29:45.747Z,23.5
2023-04-12T16:30:54.362Z,13.6
2023-04-12T16:32:02.720Z,13.6
2023-04-12T16:33:11.040Z,13.6
2023-04-12T16:34:19.588Z,6
2023-04-12T16:35:27.949Z,6
2023-04-12T16:36:36.294Z,6
2023-04-12T16:37:44.861Z,8.6
2023-04-12T16:38:53.182Z,8.6
2023-04-12T16:40:01.544Z,8.6
2023-04-12T16:41:10.129Z,5.3
2023-04-12T16:42:18.492Z,5.3
2023-04-12T16:43:26.817Z,5.3
2023-04-12T16:44:35.359Z,12.7
2023-04-12T16:45:43.710Z,12.7
2023-04-12T16:46:52.124Z,12.7
2023-04-12T16:48:00.637Z,6
2023-04-12T16:49:08.947Z,6
2023-04-12T16:50:17.286Z,6
2023-04-12T16:51:25.833Z,6.7
2023-04-12T16:52:34.169Z,6.7
2023-04-12T16:53:42.526Z,6.7
2023-04-12T16:54:51.075Z,6.3
2023-04-12T16:55:59.441Z,6.3
2023-04-12T16:57:07.794Z,6.3
2023-04-12T16:58:16.344Z,5
2023-04-12T16:59:24.659Z,5
2023-04-12T17:00:32.995Z,5
2023-04-12T17:03:17.771Z,9.4
2023-04-12T17:04:25.201Z,9.4
2023-04-12T17:05:33.691Z,16.5
2023-04-12T17:06:42.031Z,16.5
2023-04-12T17:07:50.382Z,16.5
2023-04-12T17:08:59.266Z,53.200001
2023-04-12T17:10:07.245Z,53.200001
2023-04-12T17:11:15.602Z,53.200001
2023-04-12T17:12:24.140Z,20.1
2023-04-12T17:13:32.481Z,20.1
2023-04-12T17:14:40.782Z,20.1
2023-04-12T17:15:49.330Z,22
2023-04-12T17:16:57.638Z,22
2023-04-12T17:18:05.976Z,22
2023-04-12T17:19:14.509Z,9.6
2023-04-12T17:20:22.853Z,9.6